Time;durP1;ratioP1;P1;durP2;ratioP2;P2;SDS_P1;SDS_P2;PMS_P1;PMS_P2;Temp;Humidity;BMP_temperature;BMP_pressure;BME280_temperature;BME280_humidity;BME280_pressure;Samples;Min_cycle;Max_cycle;Signal;HPM_P1;HPM_P2
2022/09/05 00:01:49;;;;;;;6.58;3.92;;;;;;;5.66;100.00;101591.45;1695891;84;21926;-37
2022/09/05 00:04:41;;;;;;;7.05;4.35;;;;;;;5.66;100.00;101588.88;1696021;84;20908;-37
2022/09/05 00:07:26;;;;;;;4.67;4.28;;;;;;;5.71;100.00;101587.70;1695905;84;20960;-37
2022/09/05 00:10:06;;;;;;;7.87;4.67;;;;;;;5.79;100.00;101579.70;1695987;84;26568;-37
2022/09/05 00:12:34;;;;;;;4.42;4.00;;;;;;;5.88;100.00;101580.31;1696022;84;20948;-37
2022/09/05 00:15:30;;;;;;;5.00;4.00;;;;;;;5.95;100.00;101578.73;1695940;84;21147;-37
2022/09/05 00:18:05;;;;;;;4.55;3.70;;;;;;;6.00;100.00;101577.98;1696328;84;21016;-37
2022/09/05 00:20:54;;;;;;;;;;;;;;;6.03;100.00;101575.50;1698470;84;20932;-37
2022/09/05 00:23:54;;;;;;;5.53;4.10;;;;;;;6.02;100.00;101577.62;1696050;84;20107;-36
2022/09/05 00:26:35;;;;;;;5.95;4.20;;;;;;;5.98;100.00;101579.66;1695936;84;20972;-37
2022/09/05 00:29:14;;;;;;;5.42;4.17;;;;;;;5.95;100.00;101573.19;1695876;84;21141;-38
2022/09/05 00:32:25;;;;;;;5.28;4.10;;;;;;;6.01;100.00;101569.88;1712186;83;20962;-37
2022/09/05 00:35:24;;;;;;;5.53;3.67;;;;;;;6.04;100.00;101567.35;1716891;83;21720;-37
2022/09/05 00:37:51;;;;;;;8.30;4.35;;;;;;;6.07;100.00;101570.01;1721686;83;20979;-37
2022/09/05 00:40:40;;;;;;;7.25;4.30;;;;;;;6.08;100.00;101566.59;1695187;83;20895;-37
2022/09/05 00:43:13;;;;;;;6.03;4.17;;;;;;;6.07;100.00;101565.27;1692659;84;22228;-37
2022/09/05 00:46:12;;;;;;;5.53;4.15;;;;;;;6.03;100.00;101564.34;1721587;83;21537;-37
2022/09/05 00:48:52;;;;;;;7.03;3.70;;;;;;;5.96;100.00;101560.78;1695428;83;20963;-37
2022/09/05 00:51:33;;;;;;;6.53;4.35;;;;;;;5.90;100.00;101560.64;1692766;83;20951;-37
2022/09/05 00:54:26;;;;;;;4.37;3.77;;;;;;;5.85;100.00;101558.41;1691176;83;21549;-37
2022/09/05 00:57:01;;;;;;;11.75;4.17;;;;;;;5.83;100.00;101559.69;1721616;83;21160;-38
2022/09/05 00:59:46;;;;;;;4.78;4.22;;;;;;;5.78;100.00;101554.85;1692845;84;21501;-37
2022/09/05 01:02:38;;;;;;;5.25;3.98;;;;;;;5.77;100.00;101549.70;1692036;84;21448;-37
2022/09/05 01:05:31;;;;;;;4.42;3.85;;;;;;;5.75;100.00;101550.54;1692696;84;20947;-37
2022/09/05 01:08:28;;;;;;;5.35;4.08;;;;;;;5.75;100.00;101547.97;1692678;84;21037;-38
2022/09/05 01:11:34;;;;;;;4.40;3.98;;;;;;;5.79;100.00;101553.16;1637722;86;21555;-36
2022/09/05 01:14:28;;;;;;;4.17;3.52;;;;;;;5.84;100.00;101548.97;1716006;83;21019;-36
2022/09/05 01:17:17;;;;;;;6.58;4.05;;;;;;;5.88;100.00;101540.47;1716181;83;21011;-36
2022/09/05 01:20:08;;;;;;;4.25;3.52;;;;;;;5.90;100.00;101537.52;1715848;83;20944;-36
2022/09/05 01:23:01;;;;;;;4.10;3.30;;;;;;;5.90;100.00;101536.23;1716002;83;20920;-36
2022/09/05 01:25:59;;;;;;;5.40;3.92;;;;;;;5.93;100.00;101539.28;1656273;85;21539;-36
2022/09/05 01:28:37;;;;;;;9.73;3.52;;;;;;;5.96;100.00;101535.48;1711314;82;20917;-36
2022/09/05 01:31:34;;;;;;;4.25;3.27;;;;;;;5.94;100.00;101542.30;1710631;83;20913;-36
2022/09/05 01:34:15;;;;;;;6.53;3.52;;;;;;;5.89;100.00;101544.38;1682031;84;21008;-37
2022/09/05 01:37:21;;;;;;;3.60;3.30;;;;;;;5.88;100.00;101541.77;1702503;84;21000;-37
2022/09/05 01:40:09;;;;;;;4.28;3.50;;;;;;;5.89;100.00;101543.09;1702540;84;21220;-37
2022/09/05 01:42:53;;;;;;;6.28;3.77;;;;;;;5.85;100.00;101540.02;1694944;84;21044;-37
2022/09/05 01:45:40;;;;;;;4.78;3.45;;;;;;;5.79;100.00;101541.60;1702400;84;20980;-37
2022/09/05 01:48:32;;;;;;;4.78;3.40;;;;;;;5.74;100.00;101542.79;1701513;83;20993;-37
2022/09/05 01:51:41;;;;;;;5.58;3.95;;;;;;;5.69;100.00;101542.72;1702570;84;20937;-37
2022/09/05 01:54:47;;;;;;;4.17;3.77;;;;;;;5.66;100.00;101546.92;1702456;84;21840;-37
2022/09/05 01:57:32;;;;;;;8.55;3.92;;;;;;;5.66;100.00;101537.50;1673203;84;21475;-37
2022/09/05 02:00:20;;;;;;;5.05;3.52;;;;;;;5.68;100.00;101535.82;1701968;83;21507;-37
2022/09/05 02:03:26;;;;;;;7.05;4.00;;;;;;;5.72;100.00;101532.91;1628672;87;21001;-37
2022/09/05 02:06:17;;;;;;;8.38;3.80;;;;;;;5.74;100.00;101533.39;1671932;85;20995;-36
2022/09/05 02:08:52;;;;;;;7.05;4.35;;;;;;;5.73;100.00;101538.09;1735337;81;21337;-36
2022/09/05 02:11:47;;;;;;;5.35;3.42;;;;;;;5.72;100.00;101536.76;1735793;82;20980;-37
2022/09/05 02:14:43;;;;;;;5.20;4.62;;;;;;;5.72;100.00;101538.92;1735840;82;20893;-37
2022/09/05 02:17:15;;;;;;;5.80;3.95;;;;;;;5.76;100.00;101532.12;1735943;82;21837;-37
2022/09/05 02:19:50;;;;;;;4.35;3.87;;;;;;;5.80;100.00;101531.34;1735901;82;21020;-37
2022/09/05 02:22:31;;;;;;;6.05;3.90;;;;;;;5.82;100.00;101537.80;1707744;82;21285;-37
2022/09/05 02:25:21;;;;;;;7.00;4.53;;;;;;;5.80;100.00;101535.63;1736040;82;20980;-37
2022/09/05 02:28:10;;;;;;;13.60;6.20;;;;;;;5.76;100.00;101535.97;1735878;82;21027;-37
2022/09/05 02:30:42;;;;;;;25.45;13.58;;;;;;;5.67;100.00;101529.39;1735086;82;20936;-37
2022/09/05 02:33:20;;;;;;;25.12;15.95;;;;;;;5.65;100.00;101533.20;1735816;82;20980;-37
2022/09/05 02:36:08;;;;;;;24.50;15.38;;;;;;;5.61;100.00;101524.59;1735893;82;21832;-37
2022/09/05 02:39:04;;;;;;;30.43;19.37;;;;;;;5.58;100.00;101522.36;1735837;82;20969;-37
2022/09/05 02:41:39;;;;;;;30.77;18.35;;;;;;;5.52;100.00;101523.54;1735919;82;20961;-37
2022/09/05 02:44:29;;;;;;;37.50;22.05;;;;;;;5.46;100.00;101526.44;1735839;82;20921;-37
2022/09/05 02:47:14;;;;;;;44.53;25.40;;;;;;;5.39;100.00;101529.70;1713730;82;20894;-37
2022/09/05 02:50:25;;;;;;;48.10;27.85;;;;;;;5.32;100.00;101526.56;1735901;82;21097;-37
2022/09/05 02:52:52;;;;;;;41.35;23.42;;;;;;;5.27;100.00;101528.18;1736311;82;20929;-37
2022/09/05 02:55:44;;;;;;;41.13;21.93;;;;;;;5.21;100.00;101529.34;1691587;82;21000;-37
2022/09/05 02:58:31;;;;;;;36.88;18.80;;;;;;;5.13;100.00;101528.74;1735976;82;21046;-37
2022/09/05 03:01:42;;;;;;;28.60;15.95;;;;;;;5.07;100.00;101533.75;1735739;82;20914;-37
2022/09/05 03:04:32;;;;;;;42.65;20.40;;;;;;;5.05;100.00;101540.55;1710334;82;21972;-37
2022/09/05 03:07:20;;;;;;;27.65;18.12;;;;;;;5.04;100.00;101533.69;1735994;82;21013;-37
2022/09/05 03:10:25;;;;;;;28.67;17.45;;;;;;;5.04;100.00;101535.82;1735875;82;20985;-37
2022/09/05 03:13:39;;;;;;;27.60;14.25;;;;;;;5.06;100.00;101535.02;1735871;82;20933;-37
2022/09/05 03:16:23;;;;;;;28.87;15.93;;;;;;;5.05;100.00;101534.14;1736436;82;20922;-36
2022/09/05 03:19:15;;;;;;;26.37;14.23;;;;;;;5.04;100.00;101533.69;1715637;82;21159;-37
2022/09/05 03:22:23;;;;;;;20.08;11.57;;;;;;;5.02;100.00;101536.21;1735772;82;20947;-37
2022/09/05 03:25:27;;;;;;;14.20;9.03;;;;;;;5.00;100.00;101535.75;1735908;82;21613;-37
2022/09/05 03:28:51;;;;;;;19.75;11.65;;;;;;;4.98;100.00;101534.41;1736011;82;20980;-37
2022/09/05 03:32:16;;;;;;;15.00;10.55;;;;;;;4.99;100.00;101542.56;1738941;81;20975;-37
2022/09/05 03:35:08;;;;;;;13.50;8.73;;;;;;;5.00;100.00;101535.75;1749718;81;22086;-37
2022/09/05 03:38:00;;;;;;;13.60;7.67;;;;;;;5.05;100.00;101541.84;1749888;82;20924;-36
2022/09/05 03:41:20;;;;;;;8.48;7.33;;;;;;;5.07;100.00;101541.45;1749865;81;20933;-37
2022/09/05 03:44:01;;;;;;;12.35;10.10;;;;;;;5.18;100.00;101546.42;1750349;82;20968;-37
2022/09/05 03:47:04;;;;;;;13.10;11.18;;;;;;;5.35;100.00;101545.03;1721871;82;21478;-37
2022/09/05 03:50:17;;;;;;;10.60;6.83;;;;;;;5.48;100.00;101547.44;1749322;82;21213;-37
2022/09/05 03:53:21;;;;;;;8.65;5.87;;;;;;;5.60;100.00;101547.66;1749887;82;20837;-36
2022/09/05 03:56:19;;;;;;;9.15;6.17;;;;;;;5.71;100.00;101543.61;1749861;81;20996;-37
2022/09/05 03:59:25;;;;;;;7.85;5.10;;;;;;;5.86;100.00;101548.58;1749848;81;20983;-36
2022/09/05 04:02:03;;;;;;;7.92;5.37;;;;;;;5.98;100.00;101551.39;1750088;81;21019;-36
2022/09/05 04:04:39;;;;;;;6.17;4.67;;;;;;;6.12;100.00;101551.66;1749875;82;21026;-37
2022/09/05 04:07:19;;;;;;;5.65;4.80;;;;;;;6.23;100.00;101549.69;1749579;82;21004;-37
2022/09/05 04:10:03;;;;;;;7.50;5.87;;;;;;;6.38;100.00;101551.65;1749927;81;20997;-37
2022/09/05 04:12:49;;;;;;;12.80;5.45;;;;;;;6.52;100.00;101551.47;1749729;81;20968;-37
2022/09/05 04:15:43;;;;;;;11.93;5.60;;;;;;;6.74;100.00;101549.23;1750066;82;20968;-37
2022/09/05 04:18:20;;;;;;;14.35;5.62;;;;;;;6.96;100.00;101558.55;1749794;82;20997;-37
2022/09/05 04:21:05;;;;;;;;;;;;;;;7.10;100.00;101553.59;1750031;82;20905;-37
2022/09/05 04:24:07;;;;;;;12.18;5.62;;;;;;;7.24;100.00;101556.35;1749698;82;20399;-37
2022/09/05 04:27:01;;;;;;;11.50;7.17;;;;;;;7.38;100.00;101561.23;1749834;82;20993;-37
2022/09/05 04:29:48;;;;;;;14.07;8.63;;;;;;;7.60;100.00;101561.50;1749995;82;20924;-37
2022/09/05 04:32:41;;;;;;;23.15;17.48;;;;;;;7.90;100.00;101553.66;1749846;81;21158;-37
2022/09/05 04:35:28;;;;;;;12.47;10.48;;;;;;;8.28;100.00;101556.16;1749280;82;20928;-37
2022/09/05 04:38:20;;;;;;;15.23;9.28;;;;;;;8.62;100.00;101553.91;1749945;82;20892;-37
2022/09/05 04:40:57;;;;;;;9.33;6.20;;;;;;;8.86;100.00;101550.61;1722861;82;20893;-36
2022/09/05 04:43:57;;;;;;;12.07;6.65;;;;;;;9.10;100.00;101546.88;1749823;81;20976;-36
2022/09/05 04:46:39;;;;;;;8.80;5.85;;;;;;;9.33;100.00;101552.14;1749906;81;21152;-36
2022/09/05 04:49:10;;;;;;;12.35;5.90;;;;;;;9.67;100.00;101557.42;1749909;81;20897;-37
2022/09/05 04:52:09;;;;;;;7.25;5.12;;;;;;;10.01;100.00;101543.70;1749991;82;21418;-37
2022/09/05 04:54:48;;;;;;;6.53;5.05;;;;;;;10.33;100.00;101541.14;1749981;81;21553;-37
2022/09/05 04:57:29;;;;;;;10.98;5.15;;;;;;;10.67;100.00;101547.19;1749874;82;21030;-37
2022/09/05 05:00:01;;;;;;;10.18;4.80;;;;;;;10.92;100.00;101542.39;1749951;82;21293;-37
2022/09/05 05:02:37;;;;;;;5.53;3.92;;;;;;;11.19;100.00;101541.87;1748544;82;21534;-37
2022/09/05 05:05:19;;;;;;;5.03;2.58;;;;;;;11.44;100.00;101551.29;1750155;82;20989;-37
2022/09/05 05:08:06;;;;;;;6.53;2.40;;;;;;;11.56;100.00;101552.97;1737942;82;20892;-37
2022/09/05 05:10:42;;;;;;;2.70;2.10;;;;;;;11.67;100.00;101542.53;1749924;82;20841;-37
2022/09/05 05:13:17;;;;;;;8.83;2.85;;;;;;;11.76;100.00;101545.94;1750041;82;21227;-37
2022/09/05 05:15:59;;;;;;;2.15;2.05;;;;;;;11.87;100.00;101547.59;1749952;82;20916;-37
2022/09/05 05:18:50;;;;;;;2.42;2.15;;;;;;;11.96;100.00;101554.46;1749020;82;20944;-38
2022/09/05 05:21:19;;;;;;;2.40;2.20;;;;;;;12.05;100.00;101554.00;1750076;81;21517;-37
2022/09/05 05:23:57;;;;;;;7.50;2.75;;;;;;;12.13;100.00;101550.48;1749906;82;21033;-37
2022/09/05 05:26:35;;;;;;;5.62;2.40;;;;;;;12.20;100.00;101556.91;1749491;82;21413;-37
2022/09/05 05:29:20;;;;;;;3.20;2.15;;;;;;;12.29;100.00;101550.79;1748674;82;20928;-37
2022/09/05 05:31:53;;;;;;;4.97;2.05;;;;;;;12.38;100.00;101552.45;1710505;81;21719;-38
2022/09/05 05:34:33;;;;;;;3.40;2.33;;;;;;;12.49;100.00;101549.73;1722075;82;21011;-38
2022/09/05 05:37:28;;;;;;;2.75;2.10;;;;;;;12.56;100.00;101554.02;1749816;82;20884;-36
2022/09/05 05:40:18;;;;;;;4.08;2.60;;;;;;;12.67;100.00;101546.55;1749832;82;21145;-36
2022/09/05 05:42:45;;;;;;;2.70;2.50;;;;;;;12.79;100.00;101541.25;1749898;81;20940;-36
2022/09/05 05:45:24;;;;;;;2.27;2.17;;;;;;;12.92;100.00;101545.87;1749648;82;21015;-36
2022/09/05 05:47:59;;;;;;;4.45;2.40;;;;;;;12.93;100.00;101548.89;1749926;82;21549;-38
2022/09/05 05:50:41;;;;;;;6.05;2.60;;;;;;;13.01;100.00;101544.46;1749766;82;21467;-37
2022/09/05 05:53:25;;;;;;;5.37;2.30;;;;;;;13.14;100.00;101549.08;1749757;81;21273;-36
2022/09/05 05:56:06;;;;;;;2.95;2.00;;;;;;;13.29;100.00;101549.33;1749714;82;21470;-37
2022/09/05 05:58:44;;;;;;;3.58;2.05;;;;;;;13.42;100.00;101553.94;1749987;82;21506;-38
2022/09/05 06:01:42;;;;;;;2.37;1.70;;;;;;;13.57;100.00;101558.56;1749896;81;21435;-38
2022/09/05 06:04:26;;;;;;;4.80;2.52;;;;;;;13.68;100.00;101557.97;1736517;82;20991;-37
2022/09/05 06:07:11;;;;;;;5.97;1.98;;;;;;;13.83;100.00;101556.88;1749797;81;21462;-37
2022/09/05 06:10:06;;;;;;;6.33;2.02;;;;;;;14.04;100.00;101561.36;1749041;82;20912;-37
2022/09/05 06:13:15;;;;;;;8.60;2.55;;;;;;;14.23;100.00;101557.59;1749958;82;21035;-37
2022/09/05 06:16:03;;;;;;;8.00;2.10;;;;;;;14.45;100.00;101562.87;1749848;82;20979;-37
2022/09/05 06:18:44;;;;;;;2.77;2.22;;;;;;;14.66;100.00;101559.05;1749765;82;21031;-37
2022/09/05 06:21:53;;;;;;;3.12;2.20;;;;;;;14.86;100.00;101560.01;1748321;82;21639;-37
2022/09/05 06:24:41;;;;;;;2.50;2.17;;;;;;;15.00;100.00;101557.56;1749651;81;20948;-37
2022/09/05 06:27:39;;;;;;;6.67;2.20;;;;;;;15.18;100.00;101557.67;1749825;82;21533;-37
2022/09/05 06:30:21;;;;;;;3.55;2.50;;;;;;;15.30;100.00;101559.17;1744463;82;21447;-37
2022/09/05 06:33:10;;;;;;;9.53;2.80;;;;;;;15.42;100.00;101563.27;1743729;81;20901;-37
2022/09/05 06:36:01;;;;;;;6.55;2.15;;;;;;;15.55;100.00;101560.80;1735899;82;21214;-37
2022/09/05 06:39:06;;;;;;;9.93;2.85;;;;;;;15.71;100.00;101562.62;1735664;82;20910;-37
2022/09/05 06:41:58;;;;;;;7.55;2.50;;;;;;;15.87;100.00;101564.89;1735945;82;20921;-37
2022/09/05 06:44:46;;;;;;;16.65;2.87;;;;;;;16.05;100.00;101559.28;1735798;82;20956;-37
2022/09/05 06:48:23;;;;;;;4.28;2.87;;;;;;;16.31;100.00;101563.01;1798421;79;22635;-37
2022/09/05 06:51:22;;;;;;;4.83;2.50;;;;;;;16.38;100.00;101559.77;1738734;81;20979;-38
2022/09/05 06:54:26;;;;;;;8.15;2.98;;;;;;;16.51;100.00;101561.19;1724528;81;21456;-37
2022/09/05 06:57:09;;;;;;;2.98;2.70;;;;;;;16.62;97.10;101556.98;1757895;81;21431;-37
2022/09/05 07:00:00;;;;;;;5.30;2.50;;;;;;;16.75;96.58;101565.80;1757936;81;20999;-38
2022/09/05 07:02:47;;;;;;;8.63;3.17;;;;;;;16.84;96.42;101564.26;1749766;81;20944;-38
2022/09/05 07:05:38;;;;;;;6.30;3.15;;;;;;;16.89;95.84;101557.57;1757915;81;20959;-37
2022/09/05 07:08:20;;;;;;;4.05;2.77;;;;;;;17.08;95.59;101551.44;1757813;81;21261;-38
2022/09/05 07:11:06;;;;;;;5.00;2.50;;;;;;;17.26;94.30;101551.78;1758019;81;21457;-38
2022/09/05 07:13:48;;;;;;;11.30;2.95;;;;;;;17.47;93.20;101553.77;1757956;81;21019;-37
2022/09/05 07:16:37;;;;;;;9.50;2.95;;;;;;;17.61;90.45;101544.66;1755772;81;20893;-37
2022/09/05 07:19:36;;;;;;;3.50;3.20;;;;;;;17.72;89.68;101553.49;1758072;81;21497;-37
2022/09/05 07:22:31;;;;;;;5.47;3.00;;;;;;;17.76;89.42;101539.39;1724430;83;21433;-38
2022/09/05 07:25:00;;;;;;;7.60;3.00;;;;;;;17.90;88.29;101549.43;1722933;83;21549;-37
2022/09/05 07:27:41;;;;;;;14.15;2.90;;;;;;;18.01;85.07;101539.92;1698368;84;21573;-38
2022/09/05 07:30:08;;;;;;;4.72;3.08;;;;;;;18.04;84.83;101536.76;1697363;84;21019;-38
2022/09/05 07:32:44;;;;;;;7.00;2.90;;;;;;;18.15;83.87;101534.25;1688161;83;20944;-38
2022/09/05 07:35:20;;;;;;;7.20;2.87;;;;;;;18.35;84.19;101530.52;1709430;84;21894;-39
2022/09/05 07:38:03;;;;;;;3.08;2.80;;;;;;;18.52;81.66;101534.30;1708876;84;20916;-39
2022/09/05 07:40:34;;;;;;;17.23;2.77;;;;;;;18.54;79.70;101539.03;1709079;84;21031;-39
2022/09/05 07:43:06;;;;;;;4.65;2.45;;;;;;;18.62;77.55;101531.77;1715991;83;21003;-39
2022/09/05 07:45:36;;;;;;;3.33;2.30;;;;;;;18.73;75.03;101534.45;1684941;84;20923;-39
2022/09/05 07:48:20;;;;;;;18.45;3.25;;;;;;;18.77;72.85;101533.43;1699142;83;22038;-39
2022/09/05 07:50:52;;;;;;;7.67;2.58;;;;;;;18.76;70.01;101531.72;1696102;84;21490;-38
2022/09/05 07:53:19;;;;;;;7.60;2.35;;;;;;;18.59;72.34;101524.02;1696448;83;21004;-38
2022/09/05 07:55:52;;;;;;;5.90;2.42;;;;;;;18.57;73.34;101529.77;1696364;84;20980;-38
2022/09/05 07:58:20;;;;;;;6.80;2.58;;;;;;;18.66;72.15;101529.44;1696122;83;20924;-38
2022/09/05 08:00:52;;;;;;;22.60;3.08;;;;;;;18.86;71.92;101521.31;1695884;84;21933;-38
2022/09/05 08:03:25;;;;;;;17.40;3.00;;;;;;;19.08;72.84;101514.00;1695464;84;21494;-38
2022/09/05 08:05:55;;;;;;;7.45;2.12;;;;;;;19.30;72.03;101521.03;1695920;83;21003;-38
2022/09/05 08:08:27;;;;;;;5.92;2.42;;;;;;;19.45;69.26;101515.64;1696170;84;21004;-38
2022/09/05 08:10:58;;;;;;;5.42;2.45;;;;;;;19.46;69.08;101514.76;1695985;84;21087;-39
2022/09/05 08:13:44;;;;;;;9.70;2.83;;;;;;;19.47;66.32;101510.74;1696075;84;21161;-38
2022/09/05 08:16:18;;;;;;;12.73;2.37;;;;;;;19.36;64.65;101505.91;1684080;84;20963;-38
2022/09/05 08:18:56;;;;;;;2.77;2.05;;;;;;;19.32;60.04;101511.33;1695941;84;20916;-38
2022/09/05 08:21:48;;;;;;;8.20;2.15;;;;;;;19.37;61.38;101504.16;1695932;84;21100;-38
2022/09/05 08:24:31;;;;;;;11.80;2.08;;;;;;;19.47;60.76;101496.30;1695959;84;20971;-38
2022/09/05 08:27:15;;;;;;;6.78;1.60;;;;;;;19.43;58.97;101494.72;1695942;84;22167;-39
2022/09/05 08:30:05;;;;;;;3.00;2.30;;;;;;;19.49;59.06;101494.47;1695922;84;21003;-37
2022/09/05 08:33:03;;;;;;;2.80;2.00;;;;;;;19.62;55.39;101490.05;1680575;84;21075;-38
2022/09/05 08:35:41;;;;;;;3.90;1.70;;;;;;;19.59;52.30;101490.18;1696071;84;20972;-38
2022/09/05 08:38:08;;;;;;;15.60;2.12;;;;;;;19.49;47.31;101480.03;1696060;84;20883;-38
2022/09/05 08:40:50;;;;;;;44.15;3.00;;;;;;;19.56;48.42;101480.64;1695918;84;22042;-38
2022/09/05 08:43:41;;;;;;;8.98;2.30;;;;;;;19.65;47.95;101480.27;1695944;84;21059;-38
2022/09/05 08:46:19;;;;;;;30.43;3.10;;;;;;;19.77;48.48;101481.53;1695961;84;20968;-39
2022/09/05 08:49:04;;;;;;;9.63;1.70;;;;;;;19.94;49.51;101472.14;1720156;83;20947;-39
2022/09/05 08:51:46;;;;;;;3.12;1.35;;;;;;;20.24;48.70;101470.44;1720625;83;20975;-38
2022/09/05 08:54:30;;;;;;;3.22;1.47;;;;;;;20.44;43.20;101462.15;1692927;84;21203;-38
2022/09/05 08:57:20;;;;;;;3.97;1.10;;;;;;;20.57;45.28;101461.14;1721951;83;21044;-38
2022/09/05 08:59:55;;;;;;;2.40;1.30;;;;;;;20.68;42.11;101453.16;1703385;84;20952;-38
2022/09/05 09:02:42;;;;;;;;;;;;;;;20.75;44.46;101452.88;1695271;84;20971;-39
2022/09/05 09:05:42;;;;;;;3.30;1.00;;;;;;;20.92;40.15;101449.05;1692943;84;24600;-38
2022/09/05 09:08:18;;;;;;;1.50;1.20;;;;;;;21.08;42.80;101445.67;1692753;84;21163;-39
2022/09/05 09:11:02;;;;;;;5.70;1.17;;;;;;;21.24;41.19;101453.25;1692934;84;21469;-39
2022/09/05 09:14:16;;;;;;;3.35;1.10;;;;;;;21.22;40.28;101456.90;1721634;82;20994;-38
2022/09/05 09:17:08;;;;;;;5.60;1.00;;;;;;;21.09;38.72;101453.95;1692717;84;20907;-38
2022/09/05 09:20:16;;;;;;;1.62;0.90;;;;;;;20.96;36.98;101451.92;1692672;84;20935;-39
2022/09/05 09:23:06;;;;;;;4.58;1.50;;;;;;;20.94;38.90;101449.83;1692587;83;21283;-39
2022/09/05 09:25:41;;;;;;;3.37;0.88;;;;;;;21.13;36.04;101434.49;1692603;83;21539;-39
2022/09/05 09:28:41;;;;;;;4.28;0.90;;;;;;;21.20;36.49;101444.24;1691281;83;20987;-39
2022/09/05 09:31:28;;;;;;;2.77;0.98;;;;;;;21.19;36.05;101437.27;1697974;83;20943;-38
2022/09/05 09:34:16;;;;;;;1.85;0.88;;;;;;;21.05;35.96;101449.77;1692931;84;20974;-38
2022/09/05 09:37:16;;;;;;;5.35;1.17;;;;;;;20.92;34.56;101437.66;1692183;84;21402;-38
2022/09/05 09:40:22;;;;;;;1.87;1.00;;;;;;;20.89;36.13;101433.85;1692654;84;20916;-38
2022/09/05 09:43:26;;;;;;;3.60;1.65;;;;;;;21.08;36.08;101424.17;1693074;83;20935;-38
2022/09/05 09:46:29;;;;;;;2.58;0.90;;;;;;;21.34;34.43;101427.33;1689896;84;20990;-38
2022/09/05 09:49:30;;;;;;;3.00;1.20;;;;;;;21.44;35.81;101426.87;1692529;83;20899;-38
2022/09/05 09:52:39;;;;;;;3.58;1.50;;;;;;;21.44;34.12;101422.47;1692659;83;21171;-38
2022/09/05 09:55:45;;;;;;;3.20;1.00;;;;;;;21.46;32.84;101420.61;1691962;84;20939;-38
2022/09/05 09:58:32;;;;;;;4.12;1.32;;;;;;;21.35;32.69;101422.45;1676209;84;20955;-38
2022/09/05 10:01:21;;;;;;;2.20;1.20;;;;;;;21.18;34.50;101415.38;1690609;84;21022;-38
2022/09/05 10:04:27;;;;;;;1.17;0.90;;;;;;;20.96;34.83;101408.50;1721725;82;20979;-38
2022/09/05 10:07:39;;;;;;;7.67;1.22;;;;;;;21.00;34.60;101404.41;1692751;84;22081;-38
2022/09/05 10:10:27;;;;;;;4.33;1.37;;;;;;;21.18;35.91;101400.90;1690995;84;20963;-39
2022/09/05 10:13:15;;;;;;;5.55;2.15;;;;;;;21.38;34.37;101391.18;1721191;83;21425;-39
2022/09/05 10:16:03;;;;;;;5.25;2.42;;;;;;;21.61;35.17;101389.19;1692224;84;20970;-39
2022/09/05 10:18:57;;;;;;;5.15;2.60;;;;;;;21.80;36.18;101382.54;1668182;84;20999;-39
2022/09/05 10:22:14;;;;;;;4.72;3.12;;;;;;;21.94;35.82;101381.83;1721803;83;21266;-39
2022/09/05 10:24:57;;;;;;;5.85;4.05;;;;;;;21.90;35.90;101385.08;1692595;83;20990;-39
2022/09/05 10:27:56;;;;;;;6.03;3.60;;;;;;;22.04;34.86;101385.67;1692382;84;20994;-39
2022/09/05 10:30:41;;;;;;;15.93;5.45;;;;;;;21.78;36.40;101377.34;1681934;84;21030;-39
2022/09/05 10:33:43;;;;;;;11.28;7.10;;;;;;;21.51;36.07;101385.67;1692821;83;20848;-39
2022/09/05 10:36:27;;;;;;;11.93;7.25;;;;;;;21.42;34.99;101380.02;1688496;84;22139;-39
2022/09/05 10:39:03;;;;;;;17.85;8.00;;;;;;;21.29;35.89;101384.59;1692611;84;20991;-39
2022/09/05 10:41:50;;;;;;;14.83;7.75;;;;;;;21.42;36.61;101380.02;1692685;84;21450;-39
2022/09/05 10:44:40;;;;;;;14.25;7.85;;;;;;;21.36;36.83;101380.71;1687079;84;20990;-39
2022/09/05 10:47:27;;;;;;;8.95;6.00;;;;;;;21.24;35.90;101374.27;1692658;84;21010;-39
2022/09/05 10:50:02;;;;;;;17.40;9.10;;;;;;;21.28;37.72;101377.61;1692522;84;22139;-39
2022/09/05 10:52:56;;;;;;;10.85;6.50;;;;;;;21.38;35.70;101378.02;1692705;84;20991;-39
2022/09/05 10:55:31;;;;;;;11.85;6.35;;;;;;;21.49;35.68;101374.85;1692647;84;20900;-39
2022/09/05 10:58:35;;;;;;;13.48;6.55;;;;;;;21.62;37.60;101366.70;1692418;83;21002;-39
2022/09/05 11:01:33;;;;;;;13.48;6.78;;;;;;;21.68;36.84;101365.09;1690968;84;20975;-39
2022/09/05 11:04:20;;;;;;;13.70;7.00;;;;;;;21.84;36.13;101362.13;1721571;83;21061;-39
2022/09/05 11:06:58;;;;;;;21.05;7.15;;;;;;;22.02;35.35;101353.76;1692581;84;20947;-39
2022/09/05 11:09:58;;;;;;;14.55;6.25;;;;;;;22.06;35.32;101352.17;1692737;84;20963;-38
2022/09/05 11:12:55;;;;;;;23.87;6.72;;;;;;;22.18;33.01;101352.47;1687093;85;20978;-38
2022/09/05 11:15:34;;;;;;;13.18;6.47;;;;;;;22.24;33.18;101345.55;1692403;84;20908;-39
2022/09/05 11:18:09;;;;;;;9.15;5.97;;;;;;;22.23;33.43;101338.57;1636036;84;21280;-39
2022/09/05 11:20:59;;;;;;;15.88;6.05;;;;;;;22.08;32.14;101341.56;1696783;83;20906;-39
2022/09/05 11:23:30;;;;;;;8.48;4.92;;;;;;;21.96;32.97;101337.80;1692584;84;20935;-39
2022/09/05 11:26:02;;;;;;;8.68;5.05;;;;;;;21.86;32.13;101342.69;1692403;84;20915;-39
2022/09/05 11:28:40;;;;;;;8.75;4.45;;;;;;;21.75;33.78;101331.87;1692710;84;20951;-39
2022/09/05 11:31:13;;;;;;;7.55;4.40;;;;;;;21.91;35.01;101330.60;1692414;84;22228;-39
2022/09/05 11:34:03;;;;;;;24.37;5.15;;;;;;;21.91;33.01;101317.42;1692447;84;20924;-39
2022/09/05 11:36:48;;;;;;;6.40;4.12;;;;;;;21.94;33.65;101322.53;1688001;84;20939;-39
2022/09/05 11:39:39;;;;;;;10.40;4.10;;;;;;;21.82;33.58;101319.59;1693161;84;21530;-39
2022/09/05 11:42:14;;;;;;;10.72;3.52;;;;;;;21.92;33.11;101311.22;1690457;83;20954;-39
2022/09/05 11:44:50;;;;;;;17.25;3.70;;;;;;;22.14;32.69;101317.98;1691939;84;21050;-39
2022/09/05 11:47:47;;;;;;;7.72;3.50;;;;;;;22.20;33.00;101310.58;1692721;83;21045;-39
2022/09/05 11:50:53;;;;;;;11.73;3.58;;;;;;;22.15;33.57;101310.46;1692617;84;20955;-39
2022/09/05 11:53:41;;;;;;;5.28;3.40;;;;;;;22.06;33.51;101300.78;1692695;84;21466;-39
2022/09/05 11:56:49;;;;;;;13.10;3.40;;;;;;;21.95;34.57;101303.98;1692847;84;20927;-39
2022/09/05 11:59:39;;;;;;;12.15;3.35;;;;;;;22.02;32.79;101305.00;1691199;84;22299;-39
2022/09/05 12:02:37;;;;;;;9.00;3.60;;;;;;;21.95;31.58;101301.83;1721616;83;20963;-39
2022/09/05 12:05:21;;;;;;;5.37;3.33;;;;;;;21.77;33.81;101297.91;1666813;84;20947;-39
2022/09/05 12:08:21;;;;;;;6.12;2.92;;;;;;;21.53;34.63;101290.32;1720636;82;21504;-39
2022/09/05 12:11:07;;;;;;;7.22;2.55;;;;;;;21.39;34.45;101283.61;1703280;84;20972;-39
2022/09/05 12:14:13;;;;;;;8.43;3.00;;;;;;;21.39;35.41;101283.61;1721665;83;21255;-39
2022/09/05 12:17:03;;;;;;;17.50;3.22;;;;;;;21.48;33.82;101289.71;1692760;84;21010;-39
2022/09/05 12:20:02;;;;;;;60.20;4.15;;;;;;;21.65;34.24;101278.81;1691549;84;20876;-39
2022/09/05 12:22:38;;;;;;;8.00;3.12;;;;;;;21.86;32.86;101281.25;1721701;83;20971;-39
2022/09/05 12:25:32;;;;;;;5.60;2.98;;;;;;;22.02;32.58;101287.87;1690144;84;20923;-39
2022/09/05 12:28:06;;;;;;;6.15;2.90;;;;;;;21.99;32.76;101295.46;1690542;84;21483;-39
2022/09/05 12:30:36;;;;;;;3.47;2.83;;;;;;;21.95;34.30;101286.02;1692625;84;20935;-39
2022/09/05 12:33:15;;;;;;;5.50;3.22;;;;;;;22.23;34.39;101286.70;1692849;84;21497;-39
2022/09/05 12:36:02;;;;;;;7.78;2.85;;;;;;;22.25;34.15;101290.56;1693063;84;20883;-39
2022/09/05 12:38:39;;;;;;;9.20;3.90;;;;;;;21.96;34.91;101279.81;1692695;84;21517;-39
2022/09/05 12:41:24;;;;;;;4.35;3.08;;;;;;;21.78;36.90;101271.95;1692703;84;21153;-39
2022/09/05 12:44:07;;;;;;;23.05;4.40;;;;;;;21.71;36.83;101273.22;1692725;84;20979;-39
2022/09/05 12:47:00;;;;;;;16.02;3.70;;;;;;;21.39;37.34;101277.87;1692725;83;20947;-39
2022/09/05 12:50:05;;;;;;;55.25;5.92;;;;;;;21.28;36.63;101272.76;1690934;83;21587;-39
2022/09/05 12:52:45;;;;;;;6.40;3.30;;;;;;;21.45;37.07;101267.48;1721631;82;21046;-39
2022/09/05 12:55:21;;;;;;;42.05;4.50;;;;;;;21.52;35.43;101264.08;1692775;84;21235;-39
2022/09/05 12:57:50;;;;;;;36.93;4.95;;;;;;;21.37;39.02;101308.69;1692870;84;20991;-38